SLM994 SMJP-EHAM
Flight info
| Callsign | SLM994 |
|---|---|
| Flight time | N/A |
| Altitude | 35000 |
| Route | TODOL DCT 0730N05400W DCT 0927N05300W 13N050W DCT QUETN/M083F350 DCT 19N045W 24N040W 28N035W 31N030W 35N025W 38N020W DCT BANAL DCT KOPAS/N0477F350 DCT PITAX/M083F350 DCT UMLER UN734 UMOXA/N0476F350 DCT AMPOP DCT SIDDI DCT DAWLY DCT GIBSO L620 SAM M140 DVR L18 VABIK Q70 KOK DCT DENUT |
| Aircraft | A346/H-SDE2E3FGHIJ3J4J5M1RWXY/LB1D1 |
Departure
| Time | 2026-05-08 03:43 |
|---|---|
| Airport | Johan Adolf Pengel International Airport (SMJP) |
Arrival
| Time | N/A |
|---|---|
| Airport | Amsterdam Airport Schiphol (EHAM) |
| Time | Latitude | Longitude | Altitude | Speed | Heading |
|---|---|---|---|---|---|
| 2026-05-08 03:43 | 5.73155 | -55.07171 | 12762 ft | 296 kts | 40° |
| 2026-05-08 03:43 | 5.75506 | -55.05207 | 13490 ft | 300 kts | 40° |
| 2026-05-08 03:43 | 5.77314 | -55.03697 | 14011 ft | 304 kts | 40° |
| 2026-05-08 03:44 | 5.78963 | -55.02318 | 14458 ft | 307 kts | 40° |
| 2026-05-08 03:44 | 5.80614 | -55.00939 | 14888 ft | 310 kts | 40° |
| 2026-05-08 03:44 | 5.82275 | -54.99550 | 15310 ft | 313 kts | 40° |
| 2026-05-08 03:44 | 5.83959 | -54.98143 | 15757 ft | 315 kts | 40° |
| 2026-05-08 03:45 | 5.85664 | -54.96718 | 16178 ft | 318 kts | 40° |
| 2026-05-08 03:45 | 5.87357 | -54.95303 | 16559 ft | 322 kts | 40° |
| 2026-05-08 03:45 | 5.89089 | -54.93854 | 16961 ft | 325 kts | 40° |
| 2026-05-08 03:45 | 5.90837 | -54.92392 | 17378 ft | 328 kts | 40° |
| 2026-05-08 03:46 | 5.92585 | -54.90931 | 17781 ft | 331 kts | 39° |
| 2026-05-08 03:46 | 5.94361 | -54.89446 | 18187 ft | 333 kts | 39° |
| 2026-05-08 03:46 | 5.96155 | -54.87946 | 18524 ft | 336 kts | 39° |
| 2026-05-08 03:46 | 5.97963 | -54.86434 | 18874 ft | 338 kts | 39° |
| 2026-05-08 03:47 | 5.99780 | -54.84921 | 19224 ft | 340 kts | 38° |
| 2026-05-08 03:47 | 6.01677 | -54.83489 | 19567 ft | 342 kts | 34° |
| 2026-05-08 03:47 | 6.03686 | -54.82196 | 19921 ft | 344 kts | 30° |
| 2026-05-08 03:47 | 6.05782 | -54.81005 | 20260 ft | 347 kts | 29° |
| 2026-05-08 03:48 | 6.07901 | -54.79825 | 20594 ft | 349 kts | 29° |
| 2026-05-08 03:48 | 6.10028 | -54.78642 | 20928 ft | 351 kts | 29° |
| 2026-05-08 03:48 | 6.12147 | -54.77460 | 21264 ft | 353 kts | 29° |
| 2026-05-08 03:48 | 6.14298 | -54.76259 | 21604 ft | 356 kts | 29° |
| 2026-05-08 03:49 | 6.16477 | -54.75040 | 21941 ft | 358 kts | 29° |
| 2026-05-08 03:49 | 6.18658 | -54.73821 | 22280 ft | 360 kts | 29° |
| 2026-05-08 03:49 | 6.20850 | -54.72593 | 22622 ft | 362 kts | 29° |
| 2026-05-08 03:49 | 6.23064 | -54.71349 | 22861 ft | 367 kts | 29° |
| 2026-05-08 03:50 | 6.25312 | -54.70089 | 23083 ft | 372 kts | 29° |
| 2026-05-08 03:50 | 6.27582 | -54.68817 | 23408 ft | 374 kts | 29° |
| 2026-05-08 03:50 | 6.29864 | -54.67538 | 23683 ft | 377 kts | 29° |
| 2026-05-08 03:50 | 6.32162 | -54.66250 | 23952 ft | 379 kts | 29° |
| 2026-05-08 03:51 | 6.34471 | -54.64956 | 24199 ft | 382 kts | 29° |
| 2026-05-08 03:51 | 6.36800 | -54.63650 | 24474 ft | 383 kts | 29° |
| 2026-05-08 03:51 | 6.39134 | -54.62341 | 24755 ft | 385 kts | 29° |
| 2026-05-08 03:51 | 6.41477 | -54.61027 | 25008 ft | 387 kts | 29° |
| 2026-05-08 03:52 | 6.43840 | -54.59701 | 25260 ft | 390 kts | 29° |
| 2026-05-08 03:52 | 6.46213 | -54.58370 | 25532 ft | 391 kts | 29° |
| 2026-05-08 03:52 | 6.48598 | -54.57032 | 25796 ft | 394 kts | 29° |
| 2026-05-08 03:52 | 6.50995 | -54.55687 | 26051 ft | 396 kts | 28° |
| 2026-05-08 03:53 | 6.53381 | -54.54345 | 26291 ft | 398 kts | 28° |
| 2026-05-08 03:53 | 6.54200 | -54.53885 | 26370 ft | 399 kts | 28° |
| 2026-05-08 03:53 | 6.56978 | -54.52327 | 26643 ft | 402 kts | 28° |
| 2026-05-08 03:53 | 6.59430 | -54.50952 | 26885 ft | 404 kts | 28° |
| 2026-05-08 03:54 | 6.61901 | -54.49566 | 27142 ft | 406 kts | 28° |
| 2026-05-08 03:54 | 6.64373 | -54.48180 | 27393 ft | 408 kts | 28° |
| 2026-05-08 03:54 | 6.66857 | -54.46785 | 27645 ft | 410 kts | 28° |
| 2026-05-08 03:54 | 6.69355 | -54.45382 | 27891 ft | 412 kts | 28° |
| 2026-05-08 03:55 | 6.71865 | -54.43972 | 28134 ft | 414 kts | 28° |
| 2026-05-08 03:55 | 6.74388 | -54.42555 | 28372 ft | 416 kts | 28° |
| 2026-05-08 03:55 | 6.76930 | -54.41127 | 28605 ft | 418 kts | 28° |
| 2026-05-08 03:55 | 6.79476 | -54.39697 | 28836 ft | 420 kts | 28° |
| 2026-05-08 03:56 | 6.82034 | -54.38258 | 29071 ft | 422 kts | 28° |
| 2026-05-08 03:56 | 6.84618 | -54.36805 | 29277 ft | 425 kts | 28° |
| 2026-05-08 03:56 | 6.87205 | -54.35352 | 29497 ft | 427 kts | 28° |
| 2026-05-08 03:56 | 6.89768 | -54.33911 | 29711 ft | 429 kts | 28° |
| 2026-05-08 03:57 | 6.92383 | -54.32442 | 29928 ft | 431 kts | 28° |
| 2026-05-08 03:57 | 6.95006 | -54.30968 | 30126 ft | 433 kts | 28° |
| 2026-05-08 03:57 | 6.97645 | -54.29483 | 30308 ft | 435 kts | 28° |
| 2026-05-08 03:57 | 7.00299 | -54.27991 | 30487 ft | 436 kts | 28° |
| 2026-05-08 03:58 | 7.02955 | -54.26497 | 30690 ft | 438 kts | 28° |
| 2026-05-08 03:58 | 7.05618 | -54.24999 | 30883 ft | 439 kts | 28° |
| 2026-05-08 03:58 | 7.08291 | -54.23496 | 31074 ft | 441 kts | 28° |
| 2026-05-08 03:58 | 7.10066 | -54.22497 | 31205 ft | 442 kts | 28° |
| 2026-05-08 03:59 | 7.12758 | -54.20980 | 31375 ft | 444 kts | 28° |
| 2026-05-08 03:59 | 7.15460 | -54.19459 | 31562 ft | 446 kts | 28° |
| 2026-05-08 03:59 | 7.18177 | -54.17931 | 31755 ft | 447 kts | 28° |
| 2026-05-08 03:59 | 7.20896 | -54.16400 | 31946 ft | 449 kts | 28° |
| 2026-05-08 04:00 | 7.23628 | -54.14862 | 32138 ft | 450 kts | 28° |
| 2026-05-08 04:00 | 7.26365 | -54.13321 | 32331 ft | 452 kts | 28° |
| 2026-05-08 04:00 | 7.29113 | -54.11774 | 32511 ft | 453 kts | 28° |
| 2026-05-08 04:00 | 7.31875 | -54.10218 | 32701 ft | 455 kts | 28° |
| 2026-05-08 04:01 | 7.34638 | -54.08662 | 32895 ft | 456 kts | 28° |
| 2026-05-08 04:01 | 7.37414 | -54.07097 | 33070 ft | 458 kts | 28° |
| 2026-05-08 04:01 | 7.40199 | -54.05527 | 33266 ft | 459 kts | 28° |
| 2026-05-08 04:01 | 7.42994 | -54.03952 | 33437 ft | 461 kts | 28° |
| 2026-05-08 04:02 | 7.45804 | -54.02368 | 33628 ft | 463 kts | 27° |
| 2026-05-08 04:02 | 7.48624 | -54.00779 | 33815 ft | 464 kts | 27° |
| 2026-05-08 04:02 | 7.51475 | -53.99242 | 33983 ft | 465 kts | 25° |
| 2026-05-08 04:02 | 7.54329 | -53.97777 | 34152 ft | 466 kts | 25° |
| 2026-05-08 04:03 | 7.57228 | -53.96301 | 34306 ft | 468 kts | 25° |
| 2026-05-08 04:03 | 7.63064 | -53.93332 | 34603 ft | 471 kts | 25° |
| 2026-05-08 04:03 | 7.65986 | -53.91843 | 34746 ft | 472 kts | 25° |
| 2026-05-08 04:04 | 7.68928 | -53.90342 | 34907 ft | 474 kts | 25° |
| 2026-05-08 04:04 | 7.71877 | -53.88837 | 34947 ft | 476 kts | 25° |
| 2026-05-08 04:04 | 7.77788 | -53.85819 | 34959 ft | 476 kts | 25° |
| 2026-05-08 04:05 | 7.83698 | -53.82801 | 34954 ft | 476 kts | 25° |
| 2026-05-08 04:05 | 7.89608 | -53.79781 | 34955 ft | 476 kts | 25° |
| 2026-05-08 04:06 | 7.95517 | -53.76761 | 34955 ft | 476 kts | 25° |
| 2026-05-08 04:06 | 8.01429 | -53.73738 | 34957 ft | 476 kts | 25° |
| 2026-05-08 04:07 | 8.07336 | -53.70716 | 34968 ft | 476 kts | 25° |
| 2026-05-08 04:07 | 8.13252 | -53.67689 | 34962 ft | 476 kts | 25° |
| 2026-05-08 04:08 | 8.19163 | -53.64664 | 34961 ft | 476 kts | 25° |
| 2026-05-08 04:08 | 8.25068 | -53.61640 | 34965 ft | 476 kts | 25° |
| 2026-05-08 04:09 | 8.30949 | -53.58629 | 34964 ft | 477 kts | 25° |
| 2026-05-08 04:09 | 8.36861 | -53.55599 | 34963 ft | 477 kts | 25° |
| 2026-05-08 04:10 | 8.42776 | -53.52568 | 34963 ft | 476 kts | 25° |
| 2026-05-08 04:10 | 8.48697 | -53.49532 | 34963 ft | 476 kts | 25° |
| 2026-05-08 04:11 | 8.54613 | -53.46497 | 34968 ft | 477 kts | 25° |
| 2026-05-08 04:11 | 8.60553 | -53.43449 | 34963 ft | 478 kts | 25° |
| 2026-05-08 04:12 | 8.66493 | -53.40401 | 34963 ft | 478 kts | 25° |
| 2026-05-08 04:12 | 8.72390 | -53.37373 | 34964 ft | 478 kts | 25° |
| 2026-05-08 04:13 | 8.78322 | -53.34327 | 34965 ft | 478 kts | 25° |
| 2026-05-08 04:13 | 8.84258 | -53.31277 | 34967 ft | 478 kts | 25° |
| 2026-05-08 04:14 | 8.90189 | -53.28228 | 34967 ft | 478 kts | 25° |
| 2026-05-08 04:14 | 8.96120 | -53.25178 | 34967 ft | 478 kts | 25° |
| 2026-05-08 04:15 | 9.02049 | -53.22128 | 34960 ft | 477 kts | 25° |
| 2026-05-08 04:15 | 9.07979 | -53.19077 | 34962 ft | 477 kts | 25° |
| 2026-05-08 04:16 | 9.13904 | -53.16025 | 34962 ft | 478 kts | 25° |
| 2026-05-08 04:16 | 9.19846 | -53.12966 | 34962 ft | 479 kts | 25° |
| 2026-05-08 04:17 | 9.25783 | -53.09909 | 34967 ft | 479 kts | 25° |
| 2026-05-08 04:17 | 9.31687 | -53.06866 | 34967 ft | 479 kts | 25° |
| 2026-05-08 04:18 | 9.37621 | -53.03807 | 34963 ft | 479 kts | 25° |
| 2026-05-08 04:18 | 9.43477 | -53.00565 | 34968 ft | 480 kts | 30° |
| 2026-05-08 04:19 | 9.48977 | -52.96713 | 34966 ft | 481 kts | 37° |
| 2026-05-08 04:19 | 9.54157 | -52.92425 | 34964 ft | 481 kts | 38° |
| 2026-05-08 04:20 | 9.59324 | -52.88091 | 34965 ft | 481 kts | 38° |
| 2026-05-08 04:20 | 9.64493 | -52.83771 | 34965 ft | 481 kts | 38° |
| 2026-05-08 04:21 | 9.69644 | -52.79475 | 34969 ft | 482 kts | 38° |
| 2026-05-08 04:21 | 9.74832 | -52.75150 | 34968 ft | 481 kts | 38° |
| 2026-05-08 04:22 | 9.80007 | -52.70833 | 34970 ft | 481 kts | 38° |
| 2026-05-08 04:22 | 9.85141 | -52.66549 | 34972 ft | 481 kts | 38° |
| 2026-05-08 04:23 | 9.90347 | -52.62202 | 34971 ft | 481 kts | 38° |
| 2026-05-08 04:23 | 9.95484 | -52.57913 | 34976 ft | 481 kts | 38° |
| 2026-05-08 04:24 | 10.00664 | -52.53585 | 34972 ft | 481 kts | 38° |
| 2026-05-08 04:24 | 10.05842 | -52.49257 | 34970 ft | 481 kts | 38° |
| 2026-05-08 04:25 | 10.11014 | -52.44932 | 34971 ft | 481 kts | 38° |
| 2026-05-08 04:25 | 10.16146 | -52.40638 | 34971 ft | 481 kts | 38° |
| 2026-05-08 04:26 | 10.21636 | -52.36042 | 34974 ft | 483 kts | 38° |
| 2026-05-08 04:26 | 10.26822 | -52.31700 | 34972 ft | 483 kts | 38° |
| 2026-05-08 04:27 | 10.32011 | -52.27355 | 34972 ft | 483 kts | 38° |
| 2026-05-08 04:27 | 10.37190 | -52.23015 | 34971 ft | 482 kts | 38° |
| 2026-05-08 04:28 | 10.42364 | -52.18677 | 34974 ft | 482 kts | 38° |
| 2026-05-08 04:28 | 10.47541 | -52.14333 | 34975 ft | 484 kts | 38° |
| 2026-05-08 04:29 | 10.52743 | -52.09969 | 34974 ft | 484 kts | 38° |
| 2026-05-08 04:29 | 10.57940 | -52.05605 | 34974 ft | 484 kts | 38° |
| 2026-05-08 04:30 | 10.63141 | -52.01237 | 34973 ft | 484 kts | 38° |
| 2026-05-08 04:30 | 10.68299 | -51.96903 | 34974 ft | 484 kts | 38° |
| 2026-05-08 04:31 | 10.73488 | -51.92541 | 34981 ft | 484 kts | 38° |
| 2026-05-08 04:31 | 10.78698 | -51.88159 | 34978 ft | 485 kts | 39° |
| 2026-05-08 04:32 | 10.83890 | -51.83789 | 34977 ft | 485 kts | 39° |
| 2026-05-08 04:32 | 10.89093 | -51.79409 | 34975 ft | 484 kts | 38° |
| 2026-05-08 04:33 | 10.94291 | -51.75031 | 34973 ft | 484 kts | 38° |
| 2026-05-08 04:33 | 10.99482 | -51.70657 | 34976 ft | 485 kts | 39° |
| 2026-05-08 04:34 | 11.04680 | -51.66275 | 34978 ft | 485 kts | 39° |
| 2026-05-08 04:34 | 11.09840 | -51.61923 | 34974 ft | 485 kts | 39° |
| 2026-05-08 04:35 | 11.15034 | -51.57539 | 34976 ft | 485 kts | 39° |
| 2026-05-08 04:35 | 11.20227 | -51.53153 | 34976 ft | 484 kts | 38° |
| 2026-05-08 04:36 | 11.25414 | -51.48772 | 34980 ft | 484 kts | 38° |
| 2026-05-08 04:36 | 11.30604 | -51.44387 | 34975 ft | 484 kts | 38° |
| 2026-05-08 04:37 | 11.35798 | -51.39997 | 34975 ft | 484 kts | 38° |
| 2026-05-08 04:37 | 11.40989 | -51.35605 | 34975 ft | 484 kts | 38° |
| 2026-05-08 04:38 | 11.46198 | -51.31195 | 34989 ft | 487 kts | 38° |
| 2026-05-08 04:38 | 11.51391 | -51.26799 | 34984 ft | 488 kts | 38° |
| 2026-05-08 04:39 | 11.56626 | -51.22365 | 34983 ft | 488 kts | 38° |
| 2026-05-08 04:39 | 11.61855 | -51.17933 | 34982 ft | 488 kts | 38° |
| 2026-05-08 04:40 | 11.67042 | -51.13534 | 34982 ft | 488 kts | 38° |
| 2026-05-08 04:40 | 11.72266 | -51.09102 | 34987 ft | 488 kts | 38° |
| 2026-05-08 04:41 | 11.77484 | -51.04671 | 34974 ft | 489 kts | 38° |
| 2026-05-08 04:41 | 11.82723 | -51.00222 | 34979 ft | 489 kts | 38° |
| 2026-05-08 04:42 | 11.87953 | -50.95779 | 34981 ft | 489 kts | 38° |
| 2026-05-08 04:42 | 11.93173 | -50.91341 | 34979 ft | 489 kts | 38° |
| 2026-05-08 04:43 | 11.98397 | -50.86896 | 34984 ft | 488 kts | 38° |
| 2026-05-08 04:43 | 12.03624 | -50.82446 | 34985 ft | 488 kts | 38° |
| 2026-05-08 04:44 | 12.08847 | -50.78001 | 34982 ft | 488 kts | 38° |
| 2026-05-08 04:44 | 12.14074 | -50.73548 | 34982 ft | 488 kts | 38° |
| 2026-05-08 04:45 | 12.19284 | -50.69107 | 34981 ft | 488 kts | 38° |
| 2026-05-08 04:45 | 12.24514 | -50.64645 | 34981 ft | 489 kts | 38° |
| 2026-05-08 04:46 | 12.29729 | -50.60195 | 34975 ft | 488 kts | 38° |
| 2026-05-08 04:46 | 12.34912 | -50.55771 | 34977 ft | 488 kts | 38° |
| 2026-05-08 04:47 | 12.40129 | -50.51315 | 34978 ft | 488 kts | 38° |
| 2026-05-08 04:47 | 12.44466 | -50.47608 | 34979 ft | 488 kts | 38° |
| 2026-05-08 04:48 | 12.49683 | -50.43146 | 34993 ft | 488 kts | 38° |
| 2026-05-08 04:48 | 12.54887 | -50.38694 | 34981 ft | 487 kts | 38° |
| 2026-05-08 04:49 | 12.60092 | -50.34239 | 34983 ft | 487 kts | 38° |
| 2026-05-08 04:49 | 12.65299 | -50.29780 | 34982 ft | 487 kts | 38° |
| 2026-05-08 04:50 | 12.70492 | -50.25330 | 34982 ft | 487 kts | 38° |
| 2026-05-08 04:50 | 12.75698 | -50.20865 | 34984 ft | 487 kts | 38° |
| 2026-05-08 04:51 | 12.80901 | -50.16401 | 34985 ft | 486 kts | 38° |
| 2026-05-08 04:51 | 12.86095 | -50.11943 | 34985 ft | 486 kts | 38° |
| 2026-05-08 04:52 | 12.91273 | -50.07497 | 34986 ft | 486 kts | 38° |
| 2026-05-08 04:52 | 12.96430 | -50.03064 | 34989 ft | 486 kts | 38° |
| 2026-05-08 04:53 | 13.01673 | -49.98677 | 34986 ft | 486 kts | 35° |
| 2026-05-08 04:53 | 13.07059 | -49.94487 | 34984 ft | 484 kts | 34° |
| 2026-05-08 04:54 | 13.12438 | -49.90321 | 34989 ft | 484 kts | 34° |
| 2026-05-08 04:54 | 13.17803 | -49.86155 | 34988 ft | 483 kts | 34° |
| 2026-05-08 04:55 | 13.23169 | -49.81979 | 34991 ft | 484 kts | 34° |
| 2026-05-08 04:55 | 13.28533 | -49.77804 | 34988 ft | 484 kts | 34° |
| 2026-05-08 04:56 | 13.33897 | -49.73626 | 34989 ft | 483 kts | 34° |
| 2026-05-08 04:56 | 13.39238 | -49.69462 | 34992 ft | 482 kts | 34° |
| 2026-05-08 04:57 | 13.44586 | -49.65291 | 34997 ft | 482 kts | 34° |
| 2026-05-08 04:57 | 13.49929 | -49.61120 | 34996 ft | 482 kts | 34° |
| 2026-05-08 04:58 | 13.55282 | -49.56941 | 34996 ft | 482 kts | 34° |
| 2026-05-08 04:58 | 13.60587 | -49.52796 | 34996 ft | 482 kts | 34° |
| 2026-05-08 04:59 | 13.65914 | -49.48630 | 34995 ft | 481 kts | 34° |
| 2026-05-08 04:59 | 13.71236 | -49.44467 | 35000 ft | 481 kts | 34° |
| 2026-05-08 05:00 | 13.76561 | -49.40299 | 34995 ft | 481 kts | 34° |
| 2026-05-08 05:00 | 13.81891 | -49.36125 | 34996 ft | 481 kts | 34° |
| 2026-05-08 05:01 | 13.87223 | -49.31947 | 34997 ft | 481 kts | 34° |
| 2026-05-08 05:01 | 13.92542 | -49.27775 | 34995 ft | 480 kts | 34° |
| 2026-05-08 05:02 | 13.97852 | -49.23609 | 34996 ft | 479 kts | 34° |
| 2026-05-08 05:02 | 14.03157 | -49.19445 | 34996 ft | 479 kts | 34° |
| 2026-05-08 05:03 | 14.08461 | -49.15279 | 34996 ft | 479 kts | 34° |
| 2026-05-08 05:03 | 14.13763 | -49.11111 | 35001 ft | 479 kts | 34° |
| 2026-05-08 05:04 | 14.19086 | -49.06925 | 34995 ft | 480 kts | 34° |
| 2026-05-08 05:04 | 14.24390 | -49.02751 | 34993 ft | 479 kts | 34° |
| 2026-05-08 05:05 | 14.29653 | -48.98607 | 34992 ft | 479 kts | 34° |
| 2026-05-08 05:05 | 14.34956 | -48.94429 | 34998 ft | 479 kts | 34° |
| 2026-05-08 05:06 | 14.40255 | -48.90252 | 34997 ft | 480 kts | 34° |
| 2026-05-08 05:06 | 14.45561 | -48.86067 | 34997 ft | 480 kts | 34° |
| 2026-05-08 05:07 | 14.50867 | -48.81879 | 34993 ft | 480 kts | 34° |
| 2026-05-08 05:07 | 14.56179 | -48.77684 | 34999 ft | 480 kts | 34° |
| 2026-05-08 05:08 | 14.61486 | -48.73489 | 35004 ft | 480 kts | 34° |
| 2026-05-08 05:08 | 14.66792 | -48.69292 | 34998 ft | 481 kts | 34° |
| 2026-05-08 05:09 | 14.72072 | -48.65115 | 34995 ft | 481 kts | 34° |
| 2026-05-08 05:09 | 14.77378 | -48.60914 | 34998 ft | 479 kts | 34° |
| 2026-05-08 05:10 | 14.85325 | -48.54616 | 35000 ft | 479 kts | 34° |
| 2026-05-08 05:11 | 14.90621 | -48.50416 | 35001 ft | 480 kts | 34° |
| 2026-05-08 05:11 | 14.95927 | -48.46206 | 34996 ft | 480 kts | 34° |
| 2026-05-08 05:12 | 15.01219 | -48.42003 | 34998 ft | 479 kts | 34° |
| 2026-05-08 05:12 | 15.06515 | -48.37795 | 34999 ft | 479 kts | 34° |
| 2026-05-08 05:13 | 15.11812 | -48.33584 | 34999 ft | 480 kts | 34° |
| 2026-05-08 05:13 | 15.17068 | -48.29401 | 34999 ft | 480 kts | 34° |
| 2026-05-08 05:14 | 15.22359 | -48.25189 | 34996 ft | 480 kts | 34° |
| 2026-05-08 05:14 | 15.27655 | -48.20971 | 34999 ft | 479 kts | 34° |
| 2026-05-08 05:15 | 15.32941 | -48.16757 | 34996 ft | 479 kts | 34° |
| 2026-05-08 05:15 | 15.38231 | -48.12537 | 34994 ft | 480 kts | 34° |
| 2026-05-08 05:16 | 15.43524 | -48.08312 | 35001 ft | 480 kts | 34° |
| 2026-05-08 05:16 | 15.48815 | -48.04085 | 34998 ft | 480 kts | 34° |
| 2026-05-08 05:17 | 15.54068 | -47.99887 | 35000 ft | 480 kts | 34° |
| 2026-05-08 05:17 | 15.59363 | -47.95652 | 34998 ft | 480 kts | 34° |
| 2026-05-08 05:18 | 15.64645 | -47.91424 | 34999 ft | 479 kts | 34° |
| 2026-05-08 05:18 | 15.69933 | -47.87190 | 34998 ft | 479 kts | 34° |
| 2026-05-08 05:19 | 15.75213 | -47.82958 | 35001 ft | 480 kts | 35° |
| 2026-05-08 05:19 | 15.80503 | -47.78717 | 34996 ft | 480 kts | 35° |
| 2026-05-08 05:20 | 15.85781 | -47.74480 | 34996 ft | 479 kts | 35° |
| 2026-05-08 05:20 | 15.91058 | -47.70243 | 34998 ft | 479 kts | 35° |
| 2026-05-08 05:21 | 15.96336 | -47.66001 | 35003 ft | 479 kts | 35° |
| 2026-05-08 05:21 | 16.01612 | -47.61759 | 34999 ft | 480 kts | 35° |
| 2026-05-08 05:22 | 16.06896 | -47.57507 | 34996 ft | 480 kts | 35° |
| 2026-05-08 05:22 | 16.12170 | -47.53260 | 34998 ft | 479 kts | 35° |
| 2026-05-08 05:23 | 16.17417 | -47.49032 | 35000 ft | 479 kts | 35° |
| 2026-05-08 05:23 | 16.22689 | -47.44781 | 35002 ft | 479 kts | 35° |
| 2026-05-08 05:24 | 16.27969 | -47.40520 | 35001 ft | 479 kts | 35° |
| 2026-05-08 05:24 | 16.33234 | -47.36269 | 34999 ft | 478 kts | 35° |
| 2026-05-08 05:25 | 16.38489 | -47.32022 | 35009 ft | 478 kts | 35° |
| 2026-05-08 05:25 | 16.43742 | -47.27775 | 35002 ft | 479 kts | 35° |
| 2026-05-08 05:26 | 16.49001 | -47.23519 | 34999 ft | 479 kts | 35° |
| 2026-05-08 05:26 | 16.54272 | -47.19251 | 34999 ft | 479 kts | 35° |
| 2026-05-08 05:27 | 16.59528 | -47.14992 | 35000 ft | 478 kts | 35° |
| 2026-05-08 05:27 | 16.64743 | -47.10763 | 35000 ft | 478 kts | 35° |
| 2026-05-08 05:28 | 16.69990 | -47.06504 | 35000 ft | 478 kts | 35° |
| 2026-05-08 05:28 | 16.75234 | -47.02246 | 35002 ft | 478 kts | 35° |
| 2026-05-08 05:29 | 16.80488 | -46.97976 | 34999 ft | 478 kts | 35° |
| 2026-05-08 05:29 | 16.85744 | -46.93702 | 35003 ft | 478 kts | 35° |
| 2026-05-08 05:30 | 16.90996 | -46.89428 | 35000 ft | 479 kts | 35° |
| 2026-05-08 05:30 | 16.96254 | -46.85145 | 35001 ft | 479 kts | 35° |
| 2026-05-08 05:31 | 17.01507 | -46.80864 | 35003 ft | 478 kts | 35° |
| 2026-05-08 05:31 | 17.06773 | -46.76570 | 35003 ft | 480 kts | 35° |
| 2026-05-08 05:32 | 17.12074 | -46.72243 | 35002 ft | 480 kts | 35° |
| 2026-05-08 05:32 | 17.17325 | -46.67954 | 35001 ft | 480 kts | 35° |
| 2026-05-08 05:33 | 17.22554 | -46.63679 | 35001 ft | 480 kts | 35° |
| 2026-05-08 05:33 | 17.27815 | -46.59376 | 35004 ft | 480 kts | 35° |
| 2026-05-08 05:34 | 17.32190 | -46.55795 | 35001 ft | 480 kts | 35° |
| 2026-05-08 05:34 | 17.37484 | -46.51458 | 35001 ft | 479 kts | 35° |
| 2026-05-08 05:35 | 17.42704 | -46.47178 | 35005 ft | 479 kts | 35° |
| 2026-05-08 05:35 | 17.49064 | -46.41960 | 35005 ft | 480 kts | 35° |
| 2026-05-08 05:36 | 17.56607 | -46.35764 | 35007 ft | 480 kts | 35° |
| 2026-05-08 05:36 | 17.63905 | -46.29762 | 35005 ft | 478 kts | 35° |
| 2026-05-08 05:37 | 17.71278 | -46.23693 | 35004 ft | 479 kts | 35° |
| 2026-05-08 05:37 | 17.78595 | -46.17664 | 35007 ft | 479 kts | 35° |
| 2026-05-08 05:38 | 17.85756 | -46.11757 | 35013 ft | 478 kts | 35° |
| 2026-05-08 05:38 | 17.91638 | -46.06901 | 35007 ft | 479 kts | 35° |
| 2026-05-08 05:39 | 17.96905 | -46.02551 | 35009 ft | 479 kts | 35° |
| 2026-05-08 05:39 | 18.02008 | -45.98032 | 35006 ft | 480 kts | 40° |
| 2026-05-08 05:40 | 18.06848 | -45.93235 | 35007 ft | 480 kts | 41° |
| 2026-05-08 05:40 | 18.11718 | -45.88376 | 35009 ft | 488 kts | 41° |
| 2026-05-08 05:41 | 18.16726 | -45.83393 | 35009 ft | 502 kts | 41° |
| 2026-05-08 05:41 | 18.21861 | -45.78285 | 35035 ft | 515 kts | 41° |
| 2026-05-08 05:41 | 18.24477 | -45.75681 | 35138 ft | 519 kts | 41° |
| 2026-05-08 05:42 | 18.27104 | -45.73064 | 35216 ft | 523 kts | 41° |
| 2026-05-08 05:42 | 18.32424 | -45.67762 | 35401 ft | 531 kts | 41° |
| 2026-05-08 05:43 | 18.37802 | -45.62399 | 35589 ft | 536 kts | 41° |
| 2026-05-08 05:43 | 18.40517 | -45.59688 | 35759 ft | 537 kts | 41° |
| 2026-05-08 05:43 | 18.43225 | -45.56983 | 35973 ft | 536 kts | 41° |
| 2026-05-08 05:43 | 18.46046 | -45.54164 | 36198 ft | 535 kts | 41° |
| 2026-05-08 05:44 | 18.49496 | -45.50715 | 36470 ft | 534 kts | 41° |
| 2026-05-08 05:44 | 18.52267 | -45.47942 | 36674 ft | 534 kts | 41° |
| 2026-05-08 05:44 | 18.55014 | -45.45193 | 36882 ft | 534 kts | 41° |
| 2026-05-08 05:44 | 18.57675 | -45.42529 | 37068 ft | 533 kts | 41° |
| 2026-05-08 05:45 | 18.60416 | -45.39783 | 37255 ft | 533 kts | 41° |
| 2026-05-08 05:45 | 18.63119 | -45.37075 | 37447 ft | 532 kts | 41° |
| 2026-05-08 05:45 | 18.65771 | -45.34416 | 37614 ft | 532 kts | 41° |
| 2026-05-08 05:45 | 18.68557 | -45.31622 | 37772 ft | 532 kts | 41° |
| 2026-05-08 05:46 | 18.71350 | -45.28819 | 37951 ft | 532 kts | 41° |
| 2026-05-08 05:46 | 18.74306 | -45.25851 | 38115 ft | 531 kts | 41° |
| 2026-05-08 05:46 | 18.77171 | -45.22974 | 38269 ft | 531 kts | 41° |
| 2026-05-08 05:46 | 18.80808 | -45.19318 | 38451 ft | 531 kts | 41° |
| 2026-05-08 05:47 | 18.84200 | -45.15907 | 38605 ft | 531 kts | 41° |
| 2026-05-08 05:47 | 18.87416 | -45.12670 | 38743 ft | 531 kts | 42° |
| 2026-05-08 05:47 | 18.90852 | -45.09210 | 38861 ft | 530 kts | 42° |
| 2026-05-08 05:48 | 18.96195 | -45.03825 | 39064 ft | 530 kts | 42° |
| 2026-05-08 05:48 | 19.01544 | -44.98463 | 39210 ft | 530 kts | 40° |
| 2026-05-08 05:49 | 19.07004 | -44.93248 | 39326 ft | 531 kts | 40° |
| 2026-05-08 05:49 | 19.12500 | -44.88037 | 39460 ft | 531 kts | 40° |
| 2026-05-08 05:50 | 19.17988 | -44.82808 | 39605 ft | 530 kts | 40° |
| 2026-05-08 05:50 | 19.23432 | -44.77603 | 39732 ft | 530 kts | 40° |
| 2026-05-08 05:51 | 19.28895 | -44.72369 | 39864 ft | 529 kts | 40° |
| 2026-05-08 05:51 | 19.34361 | -44.67127 | 39980 ft | 529 kts | 40° |
| 2026-05-08 05:52 | 19.39825 | -44.61882 | 40028 ft | 531 kts | 40° |
| 2026-05-08 05:52 | 19.45292 | -44.56630 | 40123 ft | 530 kts | 40° |
| 2026-05-08 05:53 | 19.50753 | -44.51378 | 40226 ft | 530 kts | 40° |
| 2026-05-08 05:53 | 19.56212 | -44.46122 | 40301 ft | 530 kts | 40° |
| 2026-05-08 05:54 | 19.61666 | -44.40867 | 40379 ft | 529 kts | 40° |
| 2026-05-08 05:54 | 19.67112 | -44.35616 | 40463 ft | 529 kts | 40° |
| 2026-05-08 05:55 | 19.72569 | -44.30347 | 40499 ft | 530 kts | 40° |
| 2026-05-08 05:55 | 19.78024 | -44.25075 | 40535 ft | 530 kts | 40° |
| 2026-05-08 05:56 | 19.83448 | -44.19829 | 40601 ft | 530 kts | 40° |
| 2026-05-08 05:56 | 19.88893 | -44.14558 | 40671 ft | 529 kts | 40° |
| 2026-05-08 05:57 | 19.94324 | -44.09294 | 40729 ft | 529 kts | 40° |
| 2026-05-08 05:57 | 19.99766 | -44.04015 | 40753 ft | 529 kts | 40° |
| 2026-05-08 05:58 | 20.05199 | -43.98739 | 40797 ft | 529 kts | 40° |
| 2026-05-08 05:58 | 20.10647 | -43.93444 | 40802 ft | 530 kts | 40° |
| 2026-05-08 05:59 | 20.16088 | -43.88150 | 40836 ft | 530 kts | 40° |
| 2026-05-08 05:59 | 20.21494 | -43.82885 | 40884 ft | 530 kts | 40° |
| 2026-05-08 06:00 | 20.26930 | -43.77585 | 40912 ft | 530 kts | 40° |
| 2026-05-08 06:00 | 20.32365 | -43.72282 | 40934 ft | 530 kts | 40° |
| 2026-05-08 06:01 | 20.37808 | -43.66965 | 40959 ft | 530 kts | 40° |
| 2026-05-08 06:01 | 20.43244 | -43.61650 | 40952 ft | 531 kts | 40° |
| 2026-05-08 06:02 | 20.48668 | -43.56341 | 41003 ft | 530 kts | 40° |
| 2026-05-08 06:02 | 20.54104 | -43.51015 | 41028 ft | 530 kts | 40° |
| 2026-05-08 06:03 | 20.59541 | -43.45684 | 41028 ft | 530 kts | 40° |
| 2026-05-08 06:03 | 20.64978 | -43.40345 | 41032 ft | 530 kts | 40° |
| 2026-05-08 06:04 | 20.70400 | -43.35017 | 41031 ft | 530 kts | 40° |
| 2026-05-08 06:04 | 20.75829 | -43.29676 | 41034 ft | 530 kts | 40° |
| 2026-05-08 06:05 | 20.81266 | -43.24323 | 41035 ft | 531 kts | 40° |
| 2026-05-08 06:05 | 20.86695 | -43.18971 | 41037 ft | 531 kts | 40° |
| 2026-05-08 06:06 | 20.92133 | -43.13605 | 41034 ft | 531 kts | 40° |
| 2026-05-08 06:06 | 20.97567 | -43.08238 | 41034 ft | 531 kts | 40° |
| 2026-05-08 06:07 | 21.03009 | -43.02857 | 41040 ft | 531 kts | 40° |
| 2026-05-08 06:07 | 21.08404 | -42.97516 | 41037 ft | 531 kts | 40° |
| 2026-05-08 06:08 | 21.13831 | -42.92139 | 41043 ft | 531 kts | 40° |
| 2026-05-08 06:08 | 21.19263 | -42.86751 | 41042 ft | 531 kts | 40° |
| 2026-05-08 06:09 | 21.24690 | -42.81363 | 41042 ft | 531 kts | 40° |
| 2026-05-08 06:09 | 21.30120 | -42.75964 | 41042 ft | 531 kts | 40° |
| 2026-05-08 06:10 | 21.35363 | -42.70748 | 41041 ft | 531 kts | 40° |
| 2026-05-08 06:10 | 21.40749 | -42.65383 | 41045 ft | 531 kts | 40° |
| 2026-05-08 06:11 | 21.46188 | -42.59960 | 41053 ft | 531 kts | 40° |
| 2026-05-08 06:11 | 21.51568 | -42.54589 | 41051 ft | 531 kts | 40° |
| 2026-05-08 06:12 | 21.56989 | -42.49173 | 41048 ft | 531 kts | 40° |
| 2026-05-08 06:12 | 21.62395 | -42.43766 | 41047 ft | 531 kts | 40° |
| 2026-05-08 06:13 | 21.67810 | -42.38343 | 41049 ft | 531 kts | 40° |
| 2026-05-08 06:13 | 21.73211 | -42.32928 | 41050 ft | 531 kts | 40° |
| 2026-05-08 06:14 | 21.78610 | -42.27510 | 41064 ft | 531 kts | 40° |
| 2026-05-08 06:14 | 21.84000 | -42.22095 | 41053 ft | 532 kts | 40° |
| 2026-05-08 06:15 | 21.89421 | -42.16642 | 41051 ft | 532 kts | 40° |
| 2026-05-08 06:15 | 21.94828 | -42.11199 | 41056 ft | 532 kts | 40° |
| 2026-05-08 06:16 | 22.00209 | -42.05777 | 41057 ft | 532 kts | 40° |
| 2026-05-08 06:16 | 22.05598 | -42.00340 | 41056 ft | 532 kts | 40° |
| 2026-05-08 06:17 | 22.13688 | -41.92163 | 41070 ft | 531 kts | 40° |
| 2026-05-08 06:17 | 22.19088 | -41.86700 | 41054 ft | 532 kts | 40° |
| 2026-05-08 06:18 | 22.23572 | -41.82159 | 41054 ft | 533 kts | 40° |
| 2026-05-08 06:18 | 22.28970 | -41.76687 | 41057 ft | 533 kts | 40° |
| 2026-05-08 06:19 | 22.35247 | -41.70315 | 41057 ft | 532 kts | 40° |
| 2026-05-08 06:19 | 22.39763 | -41.65726 | 41056 ft | 532 kts | 40° |
| 2026-05-08 06:20 | 22.45137 | -41.60260 | 41059 ft | 532 kts | 40° |
| 2026-05-08 06:20 | 22.50507 | -41.54789 | 41069 ft | 532 kts | 40° |
| 2026-05-08 06:21 | 22.55906 | -41.49285 | 41066 ft | 533 kts | 40° |
| 2026-05-08 06:21 | 22.61266 | -41.43816 | 41065 ft | 533 kts | 40° |
| 2026-05-08 06:22 | 22.66656 | -41.38308 | 41066 ft | 533 kts | 40° |
| 2026-05-08 06:22 | 22.72052 | -41.32788 | 41068 ft | 533 kts | 40° |
| 2026-05-08 06:23 | 22.77446 | -41.27263 | 41071 ft | 533 kts | 40° |
| 2026-05-08 06:23 | 22.82783 | -41.21792 | 41073 ft | 532 kts | 40° |
| 2026-05-08 06:24 | 22.88174 | -41.16257 | 41081 ft | 533 kts | 40° |
| 2026-05-08 06:24 | 22.93557 | -41.10725 | 41077 ft | 534 kts | 40° |
| 2026-05-08 06:25 | 22.98939 | -41.05189 | 41073 ft | 534 kts | 40° |
| 2026-05-08 06:25 | 23.04322 | -40.99644 | 41076 ft | 534 kts | 40° |
| 2026-05-08 06:26 | 23.09713 | -40.94085 | 41075 ft | 534 kts | 40° |
| 2026-05-08 06:26 | 23.15093 | -40.88529 | 41078 ft | 533 kts | 40° |
| 2026-05-08 06:27 | 23.20462 | -40.82980 | 41075 ft | 533 kts | 40° |
| 2026-05-08 06:27 | 23.25842 | -40.77413 | 41086 ft | 534 kts | 40° |
| 2026-05-08 06:28 | 23.31226 | -40.71836 | 41082 ft | 535 kts | 40° |
| 2026-05-08 06:28 | 23.36616 | -40.66243 | 41081 ft | 534 kts | 40° |
| 2026-05-08 06:29 | 23.41995 | -40.60657 | 41080 ft | 534 kts | 40° |
| 2026-05-08 06:29 | 23.47363 | -40.55076 | 41079 ft | 534 kts | 40° |
| 2026-05-08 06:30 | 23.52701 | -40.49520 | 41086 ft | 534 kts | 40° |
| 2026-05-08 06:30 | 23.58060 | -40.43934 | 41094 ft | 534 kts | 40° |
| 2026-05-08 06:31 | 23.63429 | -40.38331 | 41091 ft | 535 kts | 40° |
| 2026-05-08 06:31 | 23.68804 | -40.32717 | 41089 ft | 535 kts | 40° |
| 2026-05-08 06:32 | 23.74168 | -40.27107 | 41088 ft | 535 kts | 40° |
| 2026-05-08 06:32 | 23.79546 | -40.21473 | 41090 ft | 534 kts | 40° |
| 2026-05-08 06:33 | 23.84905 | -40.15854 | 41091 ft | 534 kts | 40° |
| 2026-05-08 06:33 | 23.90212 | -40.10283 | 41094 ft | 534 kts | 40° |
| 2026-05-08 06:34 | 23.95560 | -40.04661 | 41101 ft | 534 kts | 40° |
| 2026-05-08 06:34 | 24.00877 | -39.98959 | 41096 ft | 535 kts | 43° |
| 2026-05-08 06:35 | 24.05957 | -39.92983 | 41098 ft | 536 kts | 44° |
| 2026-05-08 06:35 | 24.10998 | -39.86971 | 41094 ft | 536 kts | 44° |
| 2026-05-08 06:36 | 24.16050 | -39.80952 | 41099 ft | 536 kts | 44° |
| 2026-05-08 06:36 | 24.21109 | -39.74926 | 41102 ft | 536 kts | 44° |
| 2026-05-08 06:37 | 24.26149 | -39.68922 | 41104 ft | 535 kts | 44° |
| 2026-05-08 06:37 | 24.31155 | -39.62951 | 41102 ft | 535 kts | 44° |
| 2026-05-08 06:38 | 24.36196 | -39.56930 | 41109 ft | 537 kts | 44° |
| 2026-05-08 06:38 | 24.41241 | -39.50895 | 41109 ft | 536 kts | 44° |
| 2026-05-08 06:39 | 24.46274 | -39.44870 | 41108 ft | 536 kts | 44° |
| 2026-05-08 06:39 | 24.51307 | -39.38837 | 41110 ft | 536 kts | 44° |
| 2026-05-08 06:40 | 24.56323 | -39.32814 | 41098 ft | 536 kts | 44° |
| 2026-05-08 06:40 | 24.61348 | -39.26774 | 41115 ft | 535 kts | 44° |
| 2026-05-08 06:41 | 24.66382 | -39.20716 | 41122 ft | 535 kts | 44° |
| 2026-05-08 06:41 | 24.71400 | -39.14670 | 41103 ft | 535 kts | 44° |
| 2026-05-08 06:42 | 24.76419 | -39.08612 | 41103 ft | 535 kts | 44° |
| 2026-05-08 06:42 | 24.81401 | -39.02594 | 41122 ft | 535 kts | 44° |
| 2026-05-08 06:43 | 24.86416 | -38.96528 | 41109 ft | 535 kts | 44° |
| 2026-05-08 06:43 | 24.91427 | -38.90458 | 41107 ft | 535 kts | 44° |
| 2026-05-08 06:44 | 24.96435 | -38.84383 | 41122 ft | 535 kts | 44° |
| 2026-05-08 06:44 | 25.01423 | -38.78326 | 41122 ft | 535 kts | 44° |
| 2026-05-08 06:45 | 25.06425 | -38.72243 | 41103 ft | 535 kts | 44° |
| 2026-05-08 06:45 | 25.11433 | -38.66144 | 41118 ft | 535 kts | 44° |
| 2026-05-08 06:46 | 25.16427 | -38.60053 | 41115 ft | 535 kts | 44° |
| 2026-05-08 06:46 | 25.21391 | -38.53995 | 41115 ft | 535 kts | 44° |
| 2026-05-08 06:47 | 25.26387 | -38.47887 | 41115 ft | 536 kts | 44° |
| 2026-05-08 06:47 | 25.31379 | -38.41776 | 41125 ft | 536 kts | 44° |
| 2026-05-08 06:48 | 25.36356 | -38.35674 | 41120 ft | 535 kts | 44° |
| 2026-05-08 06:48 | 25.41337 | -38.29561 | 41123 ft | 535 kts | 44° |
| 2026-05-08 06:49 | 25.46319 | -38.23439 | 41121 ft | 535 kts | 44° |
| 2026-05-08 06:49 | 25.51301 | -38.17307 | 41131 ft | 536 kts | 44° |
| 2026-05-08 06:50 | 25.56252 | -38.11205 | 41126 ft | 536 kts | 44° |
| 2026-05-08 06:50 | 25.61244 | -38.05047 | 41128 ft | 536 kts | 44° |
| 2026-05-08 06:51 | 25.66219 | -37.98900 | 41127 ft | 536 kts | 44° |
| 2026-05-08 06:51 | 25.71185 | -37.92755 | 41129 ft | 536 kts | 44° |
| 2026-05-08 06:52 | 25.76160 | -37.86590 | 41129 ft | 535 kts | 44° |
| 2026-05-08 06:52 | 25.81127 | -37.80428 | 41127 ft | 535 kts | 44° |
| 2026-05-08 06:53 | 25.86099 | -37.74253 | 41129 ft | 536 kts | 44° |
| 2026-05-08 06:53 | 25.91026 | -37.68120 | 41139 ft | 536 kts | 43° |
| 2026-05-08 06:54 | 25.96035 | -37.61881 | 41136 ft | 536 kts | 43° |
| 2026-05-08 06:54 | 26.00967 | -37.55730 | 41135 ft | 536 kts | 43° |
| 2026-05-08 06:55 | 26.05957 | -37.49498 | 41136 ft | 536 kts | 44° |
| 2026-05-08 06:55 | 26.10884 | -37.43332 | 41134 ft | 536 kts | 43° |
| 2026-05-08 06:56 | 26.15838 | -37.37127 | 41138 ft | 536 kts | 43° |
| 2026-05-08 06:56 | 26.20775 | -37.30935 | 41137 ft | 536 kts | 43° |
| 2026-05-08 06:57 | 26.25733 | -37.24707 | 41140 ft | 536 kts | 44° |
| 2026-05-08 06:57 | 26.30676 | -37.18486 | 41147 ft | 536 kts | 43° |
| 2026-05-08 06:58 | 26.35622 | -37.12258 | 41141 ft | 537 kts | 43° |
| 2026-05-08 06:58 | 26.40571 | -37.06016 | 41140 ft | 537 kts | 43° |
| 2026-05-08 06:59 | 26.45519 | -36.99767 | 41141 ft | 537 kts | 43° |
| 2026-05-08 06:59 | 26.50465 | -36.93507 | 41142 ft | 536 kts | 43° |
| 2026-05-08 07:00 | 26.55375 | -36.87290 | 41146 ft | 537 kts | 43° |
| 2026-05-08 07:00 | 26.60311 | -36.81029 | 41146 ft | 537 kts | 43° |
| 2026-05-08 07:01 | 26.65249 | -36.74756 | 41148 ft | 536 kts | 43° |
| 2026-05-08 07:01 | 26.70172 | -36.68490 | 41149 ft | 537 kts | 43° |
| 2026-05-08 07:02 | 26.75103 | -36.62210 | 41146 ft | 537 kts | 43° |
| 2026-05-08 07:02 | 26.80019 | -36.55940 | 41144 ft | 538 kts | 43° |
| 2026-05-08 07:03 | 26.84958 | -36.49630 | 41142 ft | 538 kts | 43° |
| 2026-05-08 07:03 | 26.89874 | -36.43341 | 41143 ft | 538 kts | 43° |
| 2026-05-08 07:04 | 26.94770 | -36.37068 | 41143 ft | 538 kts | 43° |
| 2026-05-08 07:04 | 26.99694 | -36.30749 | 41146 ft | 538 kts | 43° |
| 2026-05-08 07:05 | 27.03816 | -36.25452 | 41155 ft | 538 kts | 43° |
| 2026-05-08 07:05 | 27.08690 | -36.19178 | 41154 ft | 538 kts | 43° |
| 2026-05-08 07:06 | 27.13624 | -36.12823 | 41145 ft | 539 kts | 43° |
| 2026-05-08 07:06 | 27.18533 | -36.06491 | 41159 ft | 539 kts | 43° |
| 2026-05-08 07:07 | 27.23459 | -36.00126 | 41150 ft | 539 kts | 43° |
| 2026-05-08 07:07 | 27.28376 | -35.93760 | 41149 ft | 539 kts | 43° |
| 2026-05-08 07:08 | 27.33295 | -35.87387 | 41152 ft | 539 kts | 43° |
| 2026-05-08 07:08 | 27.38208 | -35.81010 | 41154 ft | 539 kts | 43° |
| 2026-05-08 07:09 | 27.43081 | -35.74676 | 41169 ft | 539 kts | 43° |
| 2026-05-08 07:09 | 27.48022 | -35.68241 | 41169 ft | 539 kts | 43° |
| 2026-05-08 07:10 | 27.52936 | -35.61836 | 41158 ft | 540 kts | 43° |
| 2026-05-08 07:10 | 27.57807 | -35.55479 | 41157 ft | 540 kts | 43° |
| 2026-05-08 07:11 | 27.62695 | -35.49087 | 41163 ft | 540 kts | 43° |
| 2026-05-08 07:11 | 27.67598 | -35.42664 | 41158 ft | 539 kts | 43° |
| 2026-05-08 07:12 | 27.72487 | -35.36254 | 41156 ft | 539 kts | 43° |
| 2026-05-08 07:12 | 27.77384 | -35.29822 | 41156 ft | 539 kts | 43° |
| 2026-05-08 07:13 | 27.82280 | -35.23380 | 41169 ft | 539 kts | 43° |
| 2026-05-08 07:13 | 27.87144 | -35.16968 | 41170 ft | 539 kts | 43° |